Devon, Canada
Current Conditions -  °F | °C
As of 5:00 AM on Tuesday 27 Jan 2015 (Local Time) from CYEG Reporting Station
Broken Clouds Broken Clouds  
Wind Chill: 27°   Ceiling: 16000
Heat Index: 32°   Visibility: 15mi
Dew Point: 30°   Wind: 5mph
Humidity: 93%   Direction: 330°NNW
Pressure: 29.77"   Gusts: NA
Location:  53.37°N, 113.73°W
Report Text: CYEG 271200Z 33004KT 15SM FEW120 BKN160 00/M01 A2977 RMK AC2AC5 SLP111
Loading
Personal Weather Stations






























Interactive Weather Map New forecast layout! Learn more

10-Day Weather Forecast

Advertisements
Track Severe Weather on mobile